Time;durP1;ratioP1;P1;durP2;ratioP2;P2;SDS_P1;SDS_P2;PMS_P1;PMS_P2;Temp;Humidity;BMP_temperature;BMP_pressure;BME280_temperature;BME280_humidity;BME280_pressure;Samples;Min_cycle;Max_cycle;Signal;HPM_P1;HPM_P2
2022/09/15 00:01:56;;;;;;;18.70;9.35;;;;;;;13.19;100.00;100627.38;4952062;29;20114;-65
2022/09/15 00:04:21;;;;;;;18.40;7.85;;;;;;;13.16;100.00;100628.63;4952048;29;20057;-65
2022/09/15 00:06:47;;;;;;;16.40;9.20;;;;;;;13.16;100.00;100628.63;4951573;29;20344;-66
2022/09/15 00:09:12;;;;;;;14.30;8.02;;;;;;;13.14;100.00;100628.00;4951770;28;20044;-65
2022/09/15 00:11:37;;;;;;;19.73;9.77;;;;;;;13.15;100.00;100627.00;4951729;29;20030;-65
2022/09/15 00:14:05;;;;;;;16.90;8.18;;;;;;;13.13;100.00;100623.72;4951639;29;20198;-65
2022/09/15 00:16:31;;;;;;;18.88;9.27;;;;;;;13.12;100.00;100622.06;4951766;29;20506;-65
2022/09/15 00:18:58;;;;;;;17.15;9.38;;;;;;;13.11;100.00;100615.06;4951696;29;20034;-65
2022/09/15 00:21:27;;;;;;;23.08;10.52;;;;;;;13.12;100.00;100618.56;4951816;29;20050;-65
2022/09/15 00:23:53;;;;;;;18.83;9.25;;;;;;;13.08;100.00;100610.16;4951525;29;20059;-65
2022/09/15 00:26:21;;;;;;;20.67;8.75;;;;;;;13.07;100.00;100611.22;4933700;29;20067;-65
2022/09/15 00:28:47;;;;;;;20.08;7.85;;;;;;;13.07;100.00;100618.41;4950732;28;20047;-65
2022/09/15 00:31:15;;;;;;;18.33;9.07;;;;;;;13.07;100.00;100619.25;4951596;28;20027;-65
2022/09/15 00:33:41;;;;;;;21.60;11.32;;;;;;;13.11;100.00;100615.06;4951555;29;20023;-65
2022/09/15 00:36:09;;;;;;;23.02;8.55;;;;;;;13.12;100.00;100614.00;4951505;29;20038;-66
2022/09/15 00:38:35;;;;;;;19.25;11.57;;;;;;;13.13;100.00;100607.63;4940940;28;20031;-65
2022/09/15 00:41:02;;;;;;;21.58;10.23;;;;;;;13.15;100.00;100604.72;4951225;29;20043;-65
2022/09/15 00:43:54;;;;;;;18.98;10.40;;;;;;;13.18;100.00;100607.00;4951207;29;20038;-65
2022/09/15 00:46:23;;;;;;;19.98;9.73;;;;;;;13.17;100.00;100602.66;4951035;29;20066;-65
2022/09/15 00:49:15;;;;;;;18.50;10.40;;;;;;;13.18;100.00;100600.78;4933917;28;20038;-65
2022/09/15 00:52:08;;;;;;;18.25;9.18;;;;;;;13.24;100.00;100607.97;4932437;29;20058;-65
2022/09/15 00:54:48;;;;;;;19.65;9.63;;;;;;;13.26;100.00;100611.25;4932948;29;20094;-65
2022/09/15 00:57:49;;;;;;;20.15;9.88;;;;;;;13.27;100.00;100611.03;4932702;29;20024;-65
2022/09/15 01:00:18;;;;;;;16.40;9.10;;;;;;;13.21;100.00;100601.19;4919765;29;20101;-65
2022/09/15 01:02:46;;;;;;;15.95;9.15;;;;;;;13.29;100.00;100608.16;4950949;28;20031;-65
2022/09/15 01:05:16;;;;;;;18.92;9.73;;;;;;;13.31;100.00;100616.78;4951060;28;20166;-66
2022/09/15 01:07:51;;;;;;;18.25;9.88;;;;;;;13.30;100.00;100613.28;4950903;29;20030;-65
2022/09/15 01:10:33;;;;;;;20.02;9.38;;;;;;;13.29;100.00;100605.47;4950918;28;20050;-65
2022/09/15 01:13:02;;;;;;;19.92;10.52;;;;;;;13.30;100.00;100615.94;4950793;29;20043;-65
2022/09/15 01:16:05;;;;;;;19.88;9.23;;;;;;;13.33;100.00;100612.81;4950924;29;20054;-65
2022/09/15 01:18:36;;;;;;;21.55;9.90;;;;;;;13.30;100.00;100607.09;4946841;29;20114;-65
2022/09/15 01:21:23;;;;;;;20.77;10.13;;;;;;;13.30;100.00;100607.91;4950853;29;20146;-66
2022/09/15 01:24:25;;;;;;;19.50;10.15;;;;;;;13.31;100.00;100616.78;4950784;29;20106;-66
2022/09/15 01:27:19;;;;;;;19.35;10.95;;;;;;;13.34;100.00;100619.03;4950671;29;20034;-65
2022/09/15 01:30:04;;;;;;;20.95;10.68;;;;;;;13.36;100.00;100619.59;4950516;29;20031;-65
2022/09/15 01:35:35;;;;;;;23.73;12.88;;;;;;;13.40;100.00;100620.00;4950955;28;20510;-66
2022/09/15 01:38:14;;;;;;;20.58;11.65;;;;;;;13.40;100.00;100617.31;4950717;29;20039;-65
2022/09/15 01:40:54;;;;;;;19.05;10.40;;;;;;;13.42;100.00;100617.94;4952113;28;20033;-65
2022/09/15 01:43:22;;;;;;;17.30;8.95;;;;;;;13.44;100.00;100608.63;4954317;29;20114;-65
2022/09/15 01:45:50;;;;;;;20.10;9.55;;;;;;;13.44;100.00;100607.78;4954731;29;20031;-65
2022/09/15 01:48:18;;;;;;;18.38;10.15;;;;;;;13.48;100.00;100611.66;4954488;28;20046;-66
2022/09/15 01:50:50;;;;;;;19.67;9.70;;;;;;;13.48;100.00;100617.84;4954436;29;20058;-65
2022/09/15 01:53:18;;;;;;;19.25;10.25;;;;;;;13.49;100.00;100610.63;4954490;29;20036;-65
2022/09/15 01:55:59;;;;;;;19.17;9.98;;;;;;;13.49;100.00;100610.63;4954228;29;20075;-66
2022/09/15 01:58:25;;;;;;;18.38;10.18;;;;;;;13.50;100.00;100613.09;4954306;29;20110;-65
2022/09/15 02:01:20;;;;;;;20.80;10.38;;;;;;;13.52;100.00;100607.53;4954282;29;20115;-65
2022/09/15 02:03:54;;;;;;;22.85;9.65;;;;;;;13.50;100.00;100610.41;4931189;29;20108;-65
2022/09/15 02:06:32;;;;;;;18.17;9.73;;;;;;;13.48;100.00;100606.31;4954018;29;20103;-65
2022/09/15 02:09:06;;;;;;;22.75;9.88;;;;;;;13.50;100.00;100612.28;4953956;29;20054;-65
2022/09/15 02:11:35;;;;;;;18.70;10.10;;;;;;;13.50;100.00;100612.28;4954268;29;20082;-65
2022/09/15 02:14:10;;;;;;;19.55;10.15;;;;;;;13.47;100.00;100607.38;4935489;29;20586;-65
2022/09/15 02:16:40;;;;;;;20.45;9.65;;;;;;;13.48;100.00;100615.16;4935610;29;20471;-65
2022/09/15 02:19:13;;;;;;;19.80;10.20;;;;;;;13.47;100.00;100610.03;4935620;29;20065;-65
2022/09/15 02:22:03;;;;;;;16.30;9.27;;;;;;;13.48;100.00;100612.50;4935669;29;20414;-65
2022/09/15 02:24:34;;;;;;;24.02;12.82;;;;;;;13.45;100.00;100609.44;4935054;29;20031;-65
2022/09/15 02:27:00;;;;;;;19.15;8.65;;;;;;;13.46;100.00;100611.88;4935372;29;20031;-65
2022/09/15 02:29:29;;;;;;;21.13;10.68;;;;;;;13.45;100.00;100612.94;4934959;29;20042;-66
2022/09/15 02:31:58;;;;;;;19.20;9.32;;;;;;;13.45;100.00;100601.41;4935111;29;20027;-66
2022/09/15 02:34:29;;;;;;;17.52;8.50;;;;;;;13.42;100.00;100604.53;4953752;28;20029;-65
2022/09/15 02:36:55;;;;;;;19.73;9.90;;;;;;;13.40;100.00;100607.41;4936277;29;20399;-65
2022/09/15 02:39:26;;;;;;;18.10;8.82;;;;;;;13.37;100.00;100606.00;4953368;29;20056;-65
2022/09/15 02:41:52;;;;;;;18.10;9.52;;;;;;;13.32;100.00;100597.81;4953550;29;20590;-65
2022/09/15 02:44:17;;;;;;;20.27;10.75;;;;;;;13.31;100.00;100601.53;4935907;29;20118;-65
2022/09/15 02:46:42;;;;;;;15.15;8.45;;;;;;;13.28;100.00;100610.03;4952924;29;20033;-65
2022/09/15 02:49:08;;;;;;;17.70;9.98;;;;;;;13.25;100.00;100607.72;4953353;29;20117;-65
2022/09/15 02:51:33;;;;;;;19.92;9.45;;;;;;;13.20;100.00;100609.44;4952884;28;20043;-65
2022/09/15 02:53:59;;;;;;;17.98;8.68;;;;;;;13.18;100.00;100607.00;4952835;29;20042;-65
2022/09/15 02:56:24;;;;;;;19.02;9.23;;;;;;;13.15;100.00;100624.31;4953341;28;20046;-65
2022/09/15 02:58:49;;;;;;;16.63;9.35;;;;;;;13.12;100.00;100622.06;4953193;29;20035;-70
2022/09/15 03:01:15;;;;;;;20.75;10.15;;;;;;;13.10;100.00;100618.78;4953253;29;20078;-70
2022/09/15 03:03:44;;;;;;;16.00;8.50;;;;;;;13.09;100.00;100617.13;4953114;29;20046;-70
2022/09/15 03:06:18;;;;;;;21.10;10.27;;;;;;;13.09;100.00;100617.13;4953208;29;20028;-70
2022/09/15 03:08:55;;;;;;;18.20;9.07;;;;;;;13.11;100.00;100616.94;4952967;29;20047;-71
2022/09/15 03:11:23;;;;;;;16.45;9.13;;;;;;;13.11;100.00;100615.06;4953187;28;20031;-71
2022/09/15 03:13:53;;;;;;;17.40;9.35;;;;;;;13.13;100.00;100615.66;4952983;29;20556;-71
2022/09/15 03:16:18;;;;;;;19.83;9.57;;;;;;;13.11;100.00;100611.56;4952978;29;20027;-70
2022/09/15 03:18:44;;;;;;;19.20;9.05;;;;;;;13.16;100.00;100625.94;4952740;29;20102;-70
2022/09/15 03:21:12;;;;;;;17.98;9.90;;;;;;;13.18;100.00;100628.41;4952891;28;20436;-70
2022/09/15 03:23:38;;;;;;;18.42;9.93;;;;;;;13.21;100.00;100621.81;4952826;29;20038;-70
2022/09/15 03:26:04;;;;;;;17.13;8.70;;;;;;;13.24;100.00;100626.72;4952768;29;20027;-70
2022/09/15 03:28:30;;;;;;;16.45;8.23;;;;;;;13.24;100.00;100629.38;4952322;29;20027;-70
2022/09/15 03:30:56;;;;;;;20.08;10.68;;;;;;;13.25;100.00;100631.84;4952321;29;20126;-70
2022/09/15 03:33:22;;;;;;;19.38;11.65;;;;;;;13.28;100.00;100638.63;4952017;29;20042;-70
2022/09/15 03:35:48;;;;;;;18.05;9.80;;;;;;;13.27;100.00;100648.53;4952445;29;20541;-71
2022/09/15 03:38:15;;;;;;;20.52;10.05;;;;;;;13.29;100.00;100651.00;4952494;29;20394;-70
2022/09/15 03:40:41;;;;;;;18.13;8.80;;;;;;;13.28;100.00;100644.84;4952469;28;20039;-71
2022/09/15 03:43:08;;;;;;;18.10;9.20;;;;;;;13.29;100.00;100645.66;4952652;28;20458;-71
2022/09/15 03:45:33;;;;;;;17.73;9.35;;;;;;;13.29;100.00;100648.34;4952481;29;20093;-70
2022/09/15 03:47:59;;;;;;;15.25;7.55;;;;;;;13.33;100.00;100650.31;4952291;28;20027;-70
2022/09/15 03:50:24;;;;;;;17.20;8.93;;;;;;;13.32;100.00;100648.69;4952252;28;20046;-70
2022/09/15 03:52:49;;;;;;;17.70;8.85;;;;;;;13.30;100.00;100650.78;4952328;29;20479;-70
2022/09/15 03:55:15;;;;;;;18.75;9.10;;;;;;;13.30;100.00;100649.97;4952066;29;20081;-70
2022/09/15 03:57:40;;;;;;;17.90;9.68;;;;;;;13.24;100.00;100640.91;4951362;29;20046;-70
2022/09/15 04:00:07;;;;;;;18.88;10.95;;;;;;;13.33;100.00;100649.50;4952042;28;20134;-70
2022/09/15 04:02:33;;;;;;;18.02;9.48;;;;;;;13.34;100.00;100645.81;4951961;29;20090;-70
2022/09/15 04:04:58;;;;;;;18.73;8.70;;;;;;;13.33;100.00;100630.75;4951846;28;20027;-70
2022/09/15 04:07:24;;;;;;;17.98;9.65;;;;;;;13.36;100.00;100641.03;4952041;29;20023;-71
2022/09/15 04:09:50;;;;;;;17.73;8.55;;;;;;;13.37;100.00;100634.66;4951968;28;20035;-70
2022/09/15 04:12:15;;;;;;;16.25;9.02;;;;;;;13.33;100.00;100623.53;4951881;29;20027;-70
2022/09/15 04:14:41;;;;;;;18.13;9.38;;;;;;;13.38;100.00;100634.41;4935382;28;20064;-70
2022/09/15 04:17:06;;;;;;;19.35;9.70;;;;;;;13.34;100.00;100629.75;4947209;29;20058;-70
2022/09/15 04:19:32;;;;;;;17.20;8.43;;;;;;;13.38;100.00;100638.97;4951723;29;20039;-70
2022/09/15 04:21:57;;;;;;;18.33;8.40;;;;;;;13.34;100.00;100629.75;4951669;28;20503;-70
2022/09/15 04:24:22;;;;;;;17.00;8.48;;;;;;;13.35;100.00;100634.03;4934769;29;20035;-71
2022/09/15 04:26:48;;;;;;;18.35;9.45;;;;;;;13.28;100.00;100636.81;4951691;29;20117;-70
2022/09/15 04:29:15;;;;;;;17.52;8.23;;;;;;;13.34;100.00;100643.94;4951594;29;20118;-71
2022/09/15 04:31:40;;;;;;;19.85;9.27;;;;;;;13.35;100.00;100645.56;4951671;29;20078;-71
2022/09/15 04:34:06;;;;;;;16.17;9.27;;;;;;;13.35;100.00;100637.53;4933706;28;20043;-70
2022/09/15 04:36:32;;;;;;;15.70;8.45;;;;;;;13.37;100.00;100642.69;4951126;29;20027;-71
2022/09/15 04:38:57;;;;;;;19.10;9.10;;;;;;;13.38;100.00;100636.28;4951416;28;20046;-71
2022/09/15 04:41:24;;;;;;;17.75;7.78;;;;;;;13.37;100.00;100640.00;4933939;29;20038;-71
2022/09/15 04:43:50;;;;;;;16.00;7.47;;;;;;;13.38;100.00;100637.09;4951404;28;20058;-71
2022/09/15 04:46:17;;;;;;;15.82;8.05;;;;;;;13.40;100.00;100641.44;4951359;29;20055;-71
2022/09/15 04:48:44;;;;;;;22.05;9.52;;;;;;;13.40;100.00;100638.75;4951313;28;20038;-71
2022/09/15 04:51:12;;;;;;;15.88;8.35;;;;;;;13.38;100.00;100642.44;4951333;29;20846;-71
2022/09/15 04:53:38;;;;;;;15.40;8.35;;;;;;;13.42;100.00;100642.84;4951246;29;20023;-71
2022/09/15 04:56:09;;;;;;;17.50;8.40;;;;;;;13.41;100.00;100635.84;4951104;29;20608;-71
2022/09/15 04:58:39;;;;;;;15.65;8.38;;;;;;;13.37;100.00;100642.69;4951216;29;20037;-71
2022/09/15 05:01:16;;;;;;;16.52;7.97;;;;;;;13.35;100.00;100637.53;4951031;29;20027;-71
2022/09/15 05:03:42;;;;;;;16.02;7.78;;;;;;;13.41;100.00;100637.69;4951115;29;20509;-72
2022/09/15 05:06:11;;;;;;;26.75;8.68;;;;;;;13.41;100.00;100637.69;4950957;29;20360;-71
2022/09/15 05:08:36;;;;;;;15.93;7.47;;;;;;;13.39;100.00;100635.25;4950760;29;20151;-71
2022/09/15 05:11:05;;;;;;;16.90;9.30;;;;;;;13.37;100.00;100634.66;4951010;29;20069;-71
2022/09/15 05:13:31;;;;;;;15.40;8.40;;;;;;;13.37;100.00;100635.47;4950896;29;20027;-71
2022/09/15 05:16:06;;;;;;;18.15;9.60;;;;;;;13.37;100.00;100637.34;4950278;28;20043;-71
2022/09/15 05:18:33;;;;;;;17.83;8.95;;;;;;;13.32;100.00;100645.22;4950784;28;20513;-71
2022/09/15 05:20:59;;;;;;;17.55;8.85;;;;;;;13.30;100.00;100649.97;4950614;28;20030;-71
2022/09/15 05:23:25;;;;;;;19.45;9.23;;;;;;;13.28;100.00;100646.69;4950727;29;20035;-71
2022/09/15 05:26:00;;;;;;;21.05;9.18;;;;;;;13.26;100.00;100644.22;4950763;28;20446;-71
2022/09/15 05:28:27;;;;;;;19.13;8.98;;;;;;;13.25;100.00;100655.94;4932518;29;20035;-71
2022/09/15 05:30:54;;;;;;;17.92;10.63;;;;;;;13.26;100.00;100648.75;4932348;29;20028;-71
2022/09/15 05:33:21;;;;;;;21.20;9.05;;;;;;;13.27;100.00;100645.03;4932200;29;20063;-71
2022/09/15 05:35:58;;;;;;;15.60;8.25;;;;;;;13.27;100.00;100651.22;4931532;29;20514;-71
2022/09/15 05:38:27;;;;;;;18.77;9.00;;;;;;;13.28;100.00;100654.72;4934391;29;20129;-71
2022/09/15 05:40:52;;;;;;;18.30;9.40;;;;;;;13.29;100.00;100653.69;4950514;28;20049;-72
2022/09/15 05:43:17;;;;;;;15.75;8.82;;;;;;;13.31;100.00;100662.34;4950627;29;20035;-71
2022/09/15 05:45:43;;;;;;;18.38;9.23;;;;;;;13.30;100.00;100660.66;4950832;29;20042;-71
2022/09/15 05:48:11;;;;;;;16.85;10.00;;;;;;;13.31;100.00;100665.81;4950522;29;20498;-71
2022/09/15 05:50:38;;;;;;;19.00;9.07;;;;;;;13.33;100.00;100673.63;4950521;29;20038;-71
2022/09/15 05:53:06;;;;;;;20.05;8.38;;;;;;;13.35;100.00;100672.38;4950478;29;20031;-71
2022/09/15 05:55:36;;;;;;;19.38;8.70;;;;;;;13.34;100.00;100661.88;4950412;28;20057;-71
2022/09/15 05:58:01;;;;;;;17.15;8.15;;;;;;;13.40;100.00;100665.53;4934800;29;20031;-66
2022/09/15 06:00:27;;;;;;;14.60;8.65;;;;;;;13.42;100.00;100674.19;4950175;28;20031;-66
2022/09/15 06:02:52;;;;;;;18.17;7.55;;;;;;;13.45;100.00;100671.06;4950553;28;20442;-66
2022/09/15 06:05:18;;;;;;;17.20;7.93;;;;;;;13.45;100.00;100668.38;4950461;29;20065;-66
2022/09/15 06:07:43;;;;;;;21.25;10.43;;;;;;;13.52;100.00;100680.69;4950356;29;20021;-66
2022/09/15 06:10:09;;;;;;;16.67;8.38;;;;;;;13.54;100.00;100681.25;4950174;28;20163;-66
2022/09/15 06:12:34;;;;;;;17.02;9.13;;;;;;;13.57;100.00;100678.16;4950236;29;20114;-66
2022/09/15 06:15:00;;;;;;;19.30;8.85;;;;;;;13.63;100.00;100684.50;4949992;29;20039;-66
2022/09/15 06:17:26;;;;;;;17.67;8.77;;;;;;;13.65;100.00;100678.91;4949522;29;20059;-66
2022/09/15 06:19:51;;;;;;;15.40;8.40;;;;;;;13.72;100.00;100685.84;4950128;29;20036;-66
2022/09/15 06:22:17;;;;;;;18.83;8.93;;;;;;;13.75;100.00;100685.41;4950261;28;20035;-66
2022/09/15 06:24:42;;;;;;;16.55;8.88;;;;;;;13.77;100.00;100686.00;4950387;29;20368;-66
2022/09/15 06:27:08;;;;;;;18.35;10.10;;;;;;;13.78;100.00;100692.16;4933471;29;20391;-66
2022/09/15 06:29:34;;;;;;;22.52;9.35;;;;;;;13.78;100.00;100692.16;4953690;29;20042;-66
2022/09/15 06:32:01;;;;;;;17.50;10.02;;;;;;;13.77;100.00;100687.84;4953687;29;20027;-66
2022/09/15 06:34:31;;;;;;;17.15;8.55;;;;;;;13.80;100.00;100698.94;4953594;29;20462;-66
2022/09/15 06:36:58;;;;;;;18.60;9.98;;;;;;;13.85;100.00;100700.16;4929643;29;20394;-66
2022/09/15 06:39:23;;;;;;;18.17;9.02;;;;;;;13.89;100.00;100701.38;4953468;28;20038;-66
2022/09/15 06:41:49;;;;;;;27.65;9.65;;;;;;;13.92;100.00;100699.03;4953477;28;20035;-66
2022/09/15 06:44:14;;;;;;;18.23;9.52;;;;;;;13.96;100.00;100700.25;4953537;29;20081;-66
2022/09/15 06:46:39;;;;;;;18.42;9.40;;;;;;;14.01;100.00;100708.41;4953368;29;20078;-66
2022/09/15 06:49:05;;;;;;;18.25;9.57;;;;;;;14.09;100.00;100711.84;4936283;29;20599;-65
2022/09/15 06:51:34;;;;;;;15.65;9.20;;;;;;;14.13;100.00;100713.88;4953299;29;20534;-66
2022/09/15 06:54:01;;;;;;;16.30;8.32;;;;;;;14.17;100.00;100716.91;4953352;29;20090;-66
2022/09/15 06:56:27;;;;;;;16.25;9.38;;;;;;;14.19;100.00;100720.22;4953228;29;20031;-66
2022/09/15 06:58:52;;;;;;;19.38;9.23;;;;;;;14.27;100.00;100730.63;4953186;28;20542;-66
2022/09/15 07:01:24;;;;;;;17.77;8.02;;;;;;;14.34;100.00;100730.56;4953228;29;20102;-66
2022/09/15 07:03:49;;;;;;;15.18;8.43;;;;;;;14.40;100.00;100735.03;4934639;29;20032;-66
2022/09/15 07:06:15;;;;;;;14.73;8.25;;;;;;;14.47;100.00;100735.78;4934508;29;20023;-66
2022/09/15 07:08:41;;;;;;;17.48;8.95;;;;;;;14.55;100.00;100742.72;4952759;29;20442;-66
2022/09/15 07:11:08;;;;;;;16.85;8.32;;;;;;;14.66;100.00;100744.66;4952916;28;20066;-66
2022/09/15 07:13:33;;;;;;;16.15;7.82;;;;;;;14.73;100.00;100728.47;4952805;29;20039;-66
2022/09/15 07:16:02;;;;;;;13.30;6.78;;;;;;;14.78;100.00;100736.66;4952679;29;20035;-66
2022/09/15 07:18:27;;;;;;;13.18;6.85;;;;;;;14.84;100.00;100739.25;4952859;29;20043;-70
2022/09/15 07:21:02;;;;;;;15.40;6.07;;;;;;;14.86;100.00;100729.09;4952831;29;20111;-71
2022/09/15 07:23:27;;;;;;;13.68;7.20;;;;;;;14.92;100.00;100743.47;4952834;28;20039;-70
2022/09/15 07:26:23;;;;;;;9.88;5.63;;;;;;;14.95;100.00;100742.19;4952661;28;20430;-70
2022/09/15 07:28:53;;;;;;;17.70;6.93;;;;;;;14.97;100.00;100742.81;4951859;29;20043;-70
2022/09/15 07:31:21;;;;;;;11.85;6.80;;;;;;;14.96;100.00;100744.66;4952640;28;20057;-70
2022/09/15 07:33:47;;;;;;;13.02;6.68;;;;;;;14.92;100.00;100742.66;4952785;29;20110;-70
2022/09/15 07:36:13;;;;;;;11.60;5.88;;;;;;;14.94;100.00;100745.94;4952374;29;20614;-70
2022/09/15 07:38:42;;;;;;;13.82;7.43;;;;;;;14.96;100.00;100747.34;4934220;29;20106;-66
2022/09/15 07:41:10;;;;;;;14.65;6.50;;;;;;;14.98;100.00;100752.47;4952112;28;20039;-67
2022/09/15 07:43:36;;;;;;;14.18;5.80;;;;;;;15.02;100.00;100751.00;4952473;29;20444;-66
2022/09/15 07:46:02;;;;;;;11.10;6.53;;;;;;;15.05;100.00;100763.97;4952257;28;20027;-67
2022/09/15 07:48:27;;;;;;;13.77;6.25;;;;;;;15.05;100.00;100756.72;4952347;29;20102;-67
2022/09/15 07:50:53;;;;;;;14.95;7.45;;;;;;;15.12;100.00;100768.19;4952294;29;20110;-67
2022/09/15 07:53:19;;;;;;;12.23;6.13;;;;;;;15.14;100.00;100770.63;4952186;29;20414;-67
2022/09/15 07:55:45;;;;;;;9.57;6.05;;;;;;;15.15;100.00;100761.53;4952103;28;20117;-67
2022/09/15 07:58:10;;;;;;;13.90;5.18;;;;;;;15.20;100.00;100766.25;4951941;29;20482;-67
2022/09/15 08:00:36;;;;;;;18.73;6.25;;;;;;;15.24;100.00;100767.41;4952070;29;20102;-67
2022/09/15 08:03:02;;;;;;;12.57;6.25;;;;;;;15.31;100.00;100774.31;4934599;29;20035;-67
2022/09/15 08:05:27;;;;;;;10.82;5.43;;;;;;;15.37;100.00;100774.44;4951225;28;20569;-67
2022/09/15 08:07:56;;;;;;;12.13;5.05;;;;;;;15.37;100.00;100777.94;4951685;29;20027;-67
2022/09/15 08:10:23;;;;;;;12.15;5.15;;;;;;;15.40;100.00;100785.53;4951840;29;20041;-66
2022/09/15 08:12:50;;;;;;;10.15;4.78;;;;;;;15.40;100.00;100790.91;4951967;29;20031;-67
2022/09/15 08:15:15;;;;;;;10.32;5.38;;;;;;;15.38;100.00;100776.06;4951927;29;20062;-66
2022/09/15 08:17:41;;;;;;;14.25;5.82;;;;;;;15.51;100.00;100786.63;4951572;28;20194;-66
2022/09/15 08:20:06;;;;;;;13.25;6.30;;;;;;;15.50;100.00;100775.03;4952039;29;20038;-66
2022/09/15 08:22:32;;;;;;;10.23;4.60;;;;;;;15.62;100.00;100785.84;4951490;28;20093;-66
2022/09/15 08:24:57;;;;;;;9.70;4.15;;;;;;;15.70;100.00;100782.03;4951541;28;20156;-66
2022/09/15 08:27:23;;;;;;;11.13;3.53;;;;;;;15.69;100.00;100783.91;4951851;28;20027;-67
2022/09/15 08:29:48;;;;;;;8.32;4.28;;;;;;;15.78;100.00;100793.25;4951475;28;20035;-66
2022/09/15 08:32:13;;;;;;;11.85;5.40;;;;;;;15.86;100.00;100791.28;4951438;29;20055;-66
2022/09/15 08:34:39;;;;;;;8.95;4.63;;;;;;;15.90;100.00;100792.44;4951329;29;20030;-66
2022/09/15 08:37:04;;;;;;;9.15;4.97;;;;;;;15.95;100.00;100797.94;4951395;29;20035;-65
2022/09/15 08:39:30;;;;;;;8.20;5.20;;;;;;;15.87;100.00;100791.03;4951274;29;20059;-67
2022/09/15 08:41:58;;;;;;;11.68;4.50;;;;;;;15.90;100.00;100795.97;4950936;29;20489;-66
2022/09/15 08:44:45;;;;;;;8.35;5.00;;;;;;;15.97;99.98;100809.28;4934527;29;20039;-66
2022/09/15 08:47:30;;;;;;;5.18;2.60;;;;;;;16.00;97.68;100806.94;4951191;29;20215;-66
2022/09/15 08:50:09;;;;;;;8.98;2.70;;;;;;;16.05;97.68;100800.84;4950470;28;20031;-66
2022/09/15 08:52:39;;;;;;;4.03;1.92;;;;;;;16.07;95.62;100801.44;4951149;29;20111;-66
2022/09/15 08:55:12;;;;;;;11.85;2.67;;;;;;;16.17;94.12;100814.31;4951120;29;20035;-66
2022/09/15 08:57:37;;;;;;;5.70;2.65;;;;;;;16.26;92.41;100820.16;4951082;28;20034;-67
2022/09/15 09:00:03;;;;;;;7.57;3.03;;;;;;;16.32;92.70;100825.44;4951006;29;20043;-66
2022/09/15 09:03:16;;;;;;;4.25;1.75;;;;;;;16.35;91.40;100822.25;4951220;29;20134;-66
2022/09/15 09:06:04;;;;;;;9.05;2.60;;;;;;;16.39;89.47;100825.28;4950975;28;20071;-66
2022/09/15 09:08:59;;;;;;;5.53;1.60;;;;;;;16.46;88.87;100825.19;4950845;29;20042;-66
2022/09/15 09:11:36;;;;;;;5.70;2.00;;;;;;;16.62;85.61;100838.72;4950915;29;20023;-66
2022/09/15 09:14:27;;;;;;;5.88;1.83;;;;;;;16.64;86.40;100841.19;4950656;28;20034;-66
2022/09/15 09:17:12;;;;;;;4.70;1.73;;;;;;;16.53;85.23;100842.84;4950698;29;20054;-66
2022/09/15 09:20:03;;;;;;;7.60;2.25;;;;;;;16.43;83.88;100842.63;4950775;28;20501;-66
2022/09/15 09:22:33;;;;;;;7.33;1.10;;;;;;;16.34;83.68;100850.22;4950819;28;20119;-66
2022/09/15 09:25:01;;;;;;;8.07;2.28;;;;;;;16.26;83.89;100844.38;4950768;29;20291;-66
2022/09/15 09:27:29;;;;;;;8.43;1.70;;;;;;;16.16;83.27;100840.38;4950908;29;20479;-66
2022/09/15 09:30:00;;;;;;;5.05;0.85;;;;;;;16.08;83.98;100839.91;4950747;28;20479;-66
2022/09/15 09:32:32;;;;;;;5.72;1.15;;;;;;;16.08;85.66;100853.38;4950644;29;20031;-66
2022/09/15 09:35:11;;;;;;;11.32;2.05;;;;;;;16.05;85.67;100859.22;4933460;29;20031;-69
2022/09/15 09:37:36;;;;;;;5.55;2.55;;;;;;;15.94;85.31;100844.72;4950672;29;20070;-69
2022/09/15 09:40:02;;;;;;;3.38;1.45;;;;;;;15.96;86.35;100853.38;4950742;29;20077;-69
2022/09/15 09:42:30;;;;;;;5.65;2.17;;;;;;;15.94;87.73;100839.34;4950486;29;20059;-70
2022/09/15 09:44:56;;;;;;;6.53;2.08;;;;;;;15.93;87.86;100845.78;4950055;29;20059;-70
2022/09/15 09:47:26;;;;;;;2.42;1.52;;;;;;;15.92;89.21;100844.94;4950258;28;20101;-69
2022/09/15 09:49:52;;;;;;;7.40;2.50;;;;;;;15.90;86.14;100838.16;4950494;29;20078;-70
2022/09/15 09:52:38;;;;;;;6.22;1.90;;;;;;;15.89;88.48;100844.59;4933455;29;20043;-71
2022/09/15 09:55:21;;;;;;;4.85;1.60;;;;;;;15.83;88.52;100843.66;4950659;29;20086;-70
2022/09/15 09:57:46;;;;;;;3.63;1.90;;;;;;;15.78;89.23;100838.16;4950626;29;20034;-70
2022/09/15 10:00:33;;;;;;;6.05;2.15;;;;;;;15.77;89.89;100841.88;4950483;28;20031;-70
2022/09/15 10:03:10;;;;;;;7.35;2.30;;;;;;;15.75;89.37;100849.38;4953888;28;20110;-69
2022/09/15 10:05:36;;;;;;;6.22;1.77;;;;;;;15.74;88.92;100853.09;4936738;29;20054;-70
2022/09/15 10:08:02;;;;;;;7.53;2.92;;;;;;;15.77;90.40;100848.09;4954084;28;20158;-70
2022/09/15 10:10:31;;;;;;;2.50;1.88;;;;;;;15.77;89.80;100844.56;4953967;29;20026;-70
2022/09/15 10:12:58;;;;;;;5.15;2.30;;;;;;;15.87;90.58;100852.06;4954072;29;20118;-70
2022/09/15 10:15:30;;;;;;;6.05;3.10;;;;;;;15.91;89.32;100856.75;4954014;29;20031;-70
2022/09/15 10:17:56;;;;;;;4.32;2.70;;;;;;;15.97;88.86;100855.81;4953826;29;20113;-70
2022/09/15 10:20:37;;;;;;;7.85;2.10;;;;;;;16.03;88.03;100851.38;4954014;29;20081;-70
2022/09/15 10:23:17;;;;;;;4.97;2.10;;;;;;;16.16;88.04;100848.47;4954062;29;20403;-70
2022/09/15 10:25:44;;;;;;;7.68;2.17;;;;;;;16.30;87.82;100849.06;4953898;29;20046;-70
2022/09/15 10:28:14;;;;;;;3.28;2.08;;;;;;;16.57;88.05;100837.78;4953647;29;20545;-70
2022/09/15 10:30:59;;;;;;;13.60;2.90;;;;;;;16.68;86.90;100845.03;4953933;29;20054;-69
2022/09/15 10:33:44;;;;;;;5.32;2.70;;;;;;;16.68;86.06;100846.91;4953685;29;20032;-69
2022/09/15 10:36:19;;;;;;;3.97;2.47;;;;;;;16.52;84.89;100849.28;4953546;28;20118;-69
2022/09/15 10:38:57;;;;;;;3.72;2.25;;;;;;;16.37;84.55;100854.31;4953631;28;20479;-70
2022/09/15 10:41:25;;;;;;;4.88;2.10;;;;;;;16.34;87.27;100868.25;4937599;29;20027;-70
2022/09/15 10:44:17;;;;;;;3.80;1.00;;;;;;;16.13;82.93;100883.09;4953127;29;20086;-70
2022/09/15 10:47:11;;;;;;;2.88;1.08;;;;;;;15.62;87.37;100879.13;4944384;29;20027;-71
2022/09/15 10:49:51;;;;;;;3.92;1.00;;;;;;;15.15;90.57;100870.88;4934685;29;20035;-71
2022/09/15 10:52:16;;;;;;;5.57;2.38;;;;;;;14.87;91.69;100874.91;4934647;29;20032;-71
2022/09/15 10:55:19;;;;;;;3.23;1.13;;;;;;;14.76;93.84;100878.34;4935735;28;20121;-74
2022/09/15 10:57:57;;;;;;;7.50;1.40;;;;;;;14.71;93.83;100872.84;4938396;28;20380;-71
2022/09/15 11:00:27;;;;;;;5.25;2.55;;;;;;;14.68;94.58;100866.06;4938378;28;20031;-71
2022/09/15 11:03:17;;;;;;;3.63;1.23;;;;;;;14.74;95.49;100872.38;4938688;28;20023;-71
2022/09/15 11:05:50;;;;;;;5.63;1.65;;;;;;;14.79;98.44;100873.34;4938104;28;20024;-73
2022/09/15 11:09:02;;;;;;;2.80;1.70;;;;;;;14.78;96.79;100874.41;4938925;28;20016;-72
2022/09/15 11:11:48;;;;;;;5.50;1.10;;;;;;;14.71;95.67;100870.97;4938367;28;20415;-71
2022/09/15 11:14:32;;;;;;;2.30;1.33;;;;;;;14.66;95.84;100868.13;4937557;28;20023;-71
2022/09/15 11:17:11;;;;;;;2.97;1.13;;;;;;;14.63;97.44;100866.72;4937757;28;20086;-71
2022/09/15 11:19:45;;;;;;;5.10;1.23;;;;;;;14.61;97.28;100870.66;4937686;28;20031;-71
2022/09/15 11:22:30;;;;;;;7.30;1.65;;;;;;;14.56;96.11;100860.59;4937667;28;20031;-71
2022/09/15 11:25:16;;;;;;;2.83;1.00;;;;;;;14.64;94.39;100862.16;4938116;28;20050;-71
2022/09/15 11:27:48;;;;;;;2.75;1.58;;;;;;;14.71;93.88;100862.91;4938257;28;20027;-71
2022/09/15 11:30:19;;;;;;;3.83;0.98;;;;;;;14.81;94.45;100859.72;4938171;28;20509;-70
2022/09/15 11:32:59;;;;;;;2.33;1.20;;;;;;;14.87;94.75;100851.56;4937214;28;20031;-71